Time;durP1;ratioP1;P1;durP2;ratioP2;P2;SDS_P1;SDS_P2;PMS_P1;PMS_P2;Temp;Humidity;BMP_temperature;BMP_pressure;BME280_temperature;BME280_humidity;BME280_pressure;Samples;Min_cycle;Max_cycle;Signal;HPM_P1;HPM_P2
2023/09/01 00:03:53;;;;;;;0.95;0.88;;;;;;;;;;10412008;28;20030;-46
2023/09/01 00:08:54;;;;;;;0.98;0.82;;;;;;;;;;10412046;28;20029;-48
2023/09/01 00:13:55;;;;;;;1.77;1.15;;;;;;;;;;10411795;28;20420;-47
2023/09/01 00:18:55;;;;;;;3.30;1.00;;;;;;;;;;10411428;28;20461;-46
2023/09/01 00:23:56;;;;;;;2.72;1.30;;;;;;;;;;10411340;28;20059;-47
2023/09/01 00:28:57;;;;;;;1.77;1.05;;;;;;;;;;10410787;28;20156;-48
2023/09/01 00:33:57;;;;;;;2.08;0.90;;;;;;;;;;10410960;28;20487;-47
2023/09/01 00:38:58;;;;;;;3.75;0.93;;;;;;;;;;10411210;28;20369;-46
2023/09/01 00:43:58;;;;;;;2.78;1.13;;;;;;;;;;10410561;28;20405;-47
2023/09/01 00:48:59;;;;;;;1.80;0.90;;;;;;;;;;10410337;28;20372;-46
2023/09/01 00:54:00;;;;;;;1.25;0.90;;;;;;;;;;10408985;28;20396;-47
2023/09/01 00:59:00;;;;;;;1.85;0.90;;;;;;;;;;10410021;28;20083;-47
2023/09/01 01:04:07;;;;;;;2.42;1.17;;;;;;;;;;10409838;28;20543;-46
2023/09/01 01:09:49;;;;;;;2.40;1.10;;;;;;;;;;10408769;28;20036;-47
2023/09/01 01:14:53;;;;;;;3.72;0.85;;;;;;;;;;10408488;28;20013;-47
2023/09/01 01:19:59;;;;;;;5.22;0.70;;;;;;;;;;10409431;28;20104;-47
2023/09/01 01:24:59;;;;;;;1.05;0.70;;;;;;;;;;10408572;28;20022;-46
2023/09/01 01:30:00;;;;;;;1.88;0.85;;;;;;;;;;10408850;28;20022;-47
2023/09/01 01:35:56;;;;;;;1.80;1.02;;;;;;;;;;10409315;28;20033;-47
2023/09/01 01:41:21;;;;;;;1.75;1.08;;;;;;;;;;10408205;28;20046;-48
2023/09/01 01:46:22;;;;;;;2.05;1.02;;;;;;;;;;10408385;28;20072;-47
2023/09/01 01:51:22;;;;;;;0.70;0.70;;;;;;;;;;10406157;28;20365;-48
2023/09/01 01:56:25;;;;;;;2.67;0.95;;;;;;;;;;10408152;28;20030;-47
2023/09/01 02:01:26;;;;;;;1.02;0.80;;;;;;;;;;10408284;28;20025;-47
2023/09/01 02:06:26;;;;;;;0.77;0.73;;;;;;;;;;10408237;28;20026;-48
2023/09/01 02:11:27;;;;;;;3.60;0.65;;;;;;;;;;10408524;28;20113;-47
2023/09/01 02:16:27;;;;;;;1.55;0.75;;;;;;;;;;10408182;28;20028;-47
2023/09/01 02:21:28;;;;;;;1.55;0.88;;;;;;;;;;10407985;28;20025;-47
2023/09/01 02:26:28;;;;;;;0.73;0.73;;;;;;;;;;10407986;28;20447;-47
2023/09/01 02:31:29;;;;;;;0.82;0.80;;;;;;;;;;10407813;28;20252;-46
2023/09/01 02:36:34;;;;;;;1.13;0.80;;;;;;;;;;10407851;28;20144;-46
2023/09/01 02:41:35;;;;;;;2.70;1.20;;;;;;;;;;10407687;28;20030;-47
2023/09/01 02:46:36;;;;;;;1.10;0.70;;;;;;;;;;10407228;28;20076;-47
2023/09/01 02:51:36;;;;;;;1.52;0.90;;;;;;;;;;10410111;28;20033;-47
2023/09/01 02:56:37;;;;;;;1.50;1.30;;;;;;;;;;10414793;28;20021;-47
2023/09/01 03:01:37;;;;;;;1.48;0.90;;;;;;;;;;10414782;28;20014;-47
2023/09/01 03:06:38;;;;;;;3.67;0.90;;;;;;;;;;10414369;28;20022;-47
2023/09/01 03:11:38;;;;;;;0.90;0.80;;;;;;;;;;10413850;28;20030;-47
2023/09/01 03:16:39;;;;;;;1.17;0.80;;;;;;;;;;10414095;28;20029;-47
2023/09/01 03:21:40;;;;;;;1.30;1.00;;;;;;;;;;10413781;28;20492;-47
2023/09/01 03:26:41;;;;;;;1.55;0.70;;;;;;;;;;10414261;28;20041;-49
2023/09/01 03:31:42;;;;;;;0.80;0.80;;;;;;;;;;10413264;28;20025;-47
2023/09/01 03:36:42;;;;;;;1.40;0.77;;;;;;;;;;10413466;28;20112;-47
2023/09/01 03:41:43;;;;;;;1.02;0.82;;;;;;;;;;10413095;28;20024;-47
2023/09/01 03:46:44;;;;;;;2.30;1.02;;;;;;;;;;10412521;28;20412;-47
2023/09/01 03:51:44;;;;;;;1.88;0.90;;;;;;;;;;10412633;28;20091;-47
2023/09/01 03:56:45;;;;;;;1.58;0.90;;;;;;;;;;10412510;28;20029;-47
2023/09/01 04:01:46;;;;;;;1.42;0.93;;;;;;;;;;10412193;28;20025;-47
2023/09/01 04:06:47;;;;;;;1.55;0.70;;;;;;;;;;10412455;28;20361;-48
2023/09/01 04:11:47;;;;;;;2.83;0.75;;;;;;;;;;10411820;28;20017;-47
2023/09/01 04:16:49;;;;;;;1.08;0.90;;;;;;;;;;10412014;28;20059;-47
2023/09/01 04:21:50;;;;;;;1.60;0.88;;;;;;;;;;10411392;28;20424;-46
2023/09/01 04:26:51;;;;;;;1.10;1.00;;;;;;;;;;10411294;28;20029;-47
2023/09/01 04:31:51;;;;;;;2.08;0.80;;;;;;;;;;10410953;28;20022;-47
2023/09/01 04:36:52;;;;;;;0.98;0.70;;;;;;;;;;10411403;28;20264;-46
2023/09/01 04:41:53;;;;;;;5.18;0.82;;;;;;;;;;10410823;28;20484;-46
2023/09/01 04:46:53;;;;;;;0.82;0.80;;;;;;;;;;10410222;28;20566;-46
2023/09/01 04:51:54;;;;;;;1.40;0.70;;;;;;;;;;10410311;28;20082;-48
2023/09/01 04:56:55;;;;;;;1.10;0.98;;;;;;;;;;10409413;28;20033;-47
2023/09/01 05:01:59;;;;;;;1.80;0.90;;;;;;;;;;10409733;28;20473;-47
2023/09/01 05:07:00;;;;;;;2.40;0.80;;;;;;;;;;10409829;28;20033;-47
2023/09/01 05:12:01;;;;;;;0.60;0.60;;;;;;;;;;10409472;28;20412;-47
2023/09/01 05:17:02;;;;;;;3.40;1.10;;;;;;;;;;10409204;28;20025;-48
2023/09/01 05:22:03;;;;;;;1.80;1.25;;;;;;;;;;10409197;28;20465;-47
2023/09/01 05:27:03;;;;;;;1.13;1.00;;;;;;;;;;10409098;28;20021;-46
2023/09/01 05:32:04;;;;;;;1.45;1.00;;;;;;;;;;10408865;28;20116;-47
2023/09/01 05:37:05;;;;;;;4.38;1.20;;;;;;;;;;10408868;28;20105;-47
2023/09/01 05:42:09;;;;;;;3.15;1.20;;;;;;;;;;10406215;28;20412;-47
2023/09/01 05:47:10;;;;;;;2.78;1.50;;;;;;;;;;10401612;28;20031;-46
2023/09/01 05:52:10;;;;;;;2.63;1.35;;;;;;;;;;10404712;28;20045;-46
2023/09/01 05:57:11;;;;;;;6.13;1.40;;;;;;;;;;10404851;28;20040;-46
2023/09/01 06:02:11;;;;;;;1.10;0.90;;;;;;;;;;10406045;28;20037;-48
2023/09/01 06:07:12;;;;;;;4.13;1.40;;;;;;;;;;10408278;28;20042;-49
2023/09/01 06:12:14;;;;;;;5.28;1.23;;;;;;;;;;10406966;28;20040;-52
2023/09/01 06:17:15;;;;;;;1.83;1.10;;;;;;;;;;10406968;28;20033;-47
2023/09/01 06:22:15;;;;;;;2.78;1.23;;;;;;;;;;10407652;28;20037;-52
2023/09/01 06:27:16;;;;;;;3.22;1.35;;;;;;;;;;10411582;28;20040;-48
2023/09/01 06:32:17;;;;;;;4.70;1.23;;;;;;;;;;10415619;28;20029;-50
2023/09/01 06:37:17;;;;;;;2.75;1.38;;;;;;;;;;10415670;28;20041;-49
2023/09/01 06:42:18;;;;;;;2.00;1.20;;;;;;;;;;10415138;28;20045;-49
2023/09/01 06:47:18;;;;;;;5.72;1.58;;;;;;;;;;10414993;28;20037;-51
2023/09/01 06:52:19;;;;;;;1.85;1.23;;;;;;;;;;10414687;28;20029;-48
2023/09/01 06:57:19;;;;;;;5.03;1.20;;;;;;;;;;10414805;28;20037;-46
2023/09/01 07:02:20;;;;;;;3.03;1.27;;;;;;;;;;10414320;28;20036;-47
2023/09/01 07:07:21;;;;;;;2.78;1.20;;;;;;;;;;10414299;28;20025;-48
2023/09/01 07:12:22;;;;;;;4.68;1.25;;;;;;;;;;10414035;28;20222;-45
2023/09/01 07:17:24;;;;;;;2.60;1.38;;;;;;;;;;10414194;28;20195;-48
2023/09/01 07:22:24;;;;;;;2.33;1.38;;;;;;;;;;10413959;28;20033;-46
2023/09/01 07:27:25;;;;;;;3.88;1.30;;;;;;;;;;10413483;28;20041;-49
2023/09/01 07:32:25;;;;;;;2.03;1.17;;;;;;;;;;10413537;28;20021;-46
2023/09/01 07:37:26;;;;;;;1.58;1.20;;;;;;;;;;10412826;28;20037;-53
2023/09/01 07:42:26;;;;;;;1.65;1.00;;;;;;;;;;10412913;28;20037;-48
2023/09/01 07:47:27;;;;;;;5.07;1.40;;;;;;;;;;10412504;28;20034;-49
2023/09/01 07:52:29;;;;;;;1.30;1.15;;;;;;;;;;10413035;28;20021;-54
2023/09/01 07:57:29;;;;;;;2.15;1.30;;;;;;;;;;10412413;28;20052;-50
2023/09/01 08:02:30;;;;;;;7.00;1.35;;;;;;;;;;10412132;28;20026;-48
2023/09/01 08:07:31;;;;;;;1.58;1.13;;;;;;;;;;10411951;28;20041;-46
2023/09/01 08:12:31;;;;;;;2.10;1.10;;;;;;;;;;10412629;28;20098;-48
2023/09/01 08:17:34;;;;;;;2.55;1.20;;;;;;;;;;10411625;28;20380;-46
2023/09/01 08:22:35;;;;;;;3.17;1.33;;;;;;;;;;10411463;28;20457;-46
2023/09/01 08:27:36;;;;;;;4.70;1.15;;;;;;;;;;10411256;28;20116;-46
2023/09/01 08:32:40;;;;;;;2.08;1.33;;;;;;;;;;10411062;28;20025;-48
2023/09/01 08:37:41;;;;;;;1.92;1.10;;;;;;;;;;10411203;28;20473;-47
2023/09/01 08:42:48;;;;;;;1.95;1.02;;;;;;;;;;10410739;28;20053;-52
2023/09/01 08:47:50;;;;;;;4.57;1.20;;;;;;;;;;10402134;28;20087;-50
2023/09/01 08:52:50;;;;;;;4.38;1.45;;;;;;;;;;10406362;28;20029;-53
2023/09/01 08:57:51;;;;;;;2.20;1.30;;;;;;;;;;10399889;28;20381;-47
2023/09/01 09:02:52;;;;;;;4.40;1.48;;;;;;;;;;10401331;28;20033;-46
2023/09/01 09:08:01;;;;;;;2.65;1.33;;;;;;;;;;10404959;28;20393;-50
2023/09/01 09:13:19;;;;;;;4.10;1.52;;;;;;;;;;10407258;28;20026;-55
2023/09/01 09:18:29;;;;;;;5.88;1.40;;;;;;;;;;10388302;28;20030;-52
2023/09/01 09:23:44;;;;;;;3.05;1.60;;;;;;;;;;10404492;28;20040;-48
2023/09/01 09:28:46;;;;;;;1.45;1.27;;;;;;;;;;10407171;28;20469;-49
2023/09/01 09:33:47;;;;;;;2.30;1.27;;;;;;;;;;10397931;28;20095;-46
2023/09/01 09:38:47;;;;;;;4.25;1.20;;;;;;;;;;10409163;28;20034;-46
2023/09/01 09:43:49;;;;;;;5.10;1.38;;;;;;;;;;10408584;28;20469;-46
2023/09/01 09:48:50;;;;;;;1.75;1.27;;;;;;;;;;10408928;28;20172;-46
2023/09/01 09:53:51;;;;;;;2.10;1.23;;;;;;;;;;10407664;28;20194;-46
2023/09/01 09:58:53;;;;;;;3.65;1.35;;;;;;;;;;10408551;28;20091;-45
2023/09/01 10:03:54;;;;;;;2.75;1.17;;;;;;;;;;10415911;28;20021;-46
2023/09/01 10:08:57;;;;;;;3.95;1.10;;;;;;;;;;10415752;28;20020;-45
2023/09/01 10:14:00;;;;;;;2.58;1.10;;;;;;;;;;10416764;28;20030;-46
2023/09/01 10:19:01;;;;;;;4.18;1.13;;;;;;;;;;10416781;28;20030;-46
2023/09/01 10:24:02;;;;;;;2.40;1.10;;;;;;;;;;10414882;28;20037;-46
2023/09/01 10:29:04;;;;;;;0.93;0.90;;;;;;;;;;10415125;28;20035;-46
2023/09/01 10:34:12;;;;;;;2.05;1.20;;;;;;;;;;10415692;28;20465;-50
2023/09/01 10:39:16;;;;;;;4.07;1.35;;;;;;;;;;10416036;28;20057;-45
2023/09/01 10:44:16;;;;;;;1.10;0.95;;;;;;;;;;10415200;28;20053;-52
2023/09/01 10:49:17;;;;;;;1.30;1.15;;;;;;;;;;10414479;28;20029;-50
2023/09/01 10:54:19;;;;;;;2.00;1.10;;;;;;;;;;10413995;28;20021;-46
2023/09/01 10:59:37;;;;;;;5.43;1.20;;;;;;;;;;10415278;28;20069;-52
2023/09/01 11:04:40;;;;;;;2.55;1.33;;;;;;;;;;10401772;28;20041;-46
2023/09/01 11:09:42;;;;;;;3.03;1.35;;;;;;;;;;10414602;28;20080;-46
2023/09/01 11:14:58;;;;;;;2.03;1.30;;;;;;;;;;10413636;28;20493;-46
2023/09/01 11:19:58;;;;;;;4.78;1.30;;;;;;;;;;10401535;28;20037;-51
2023/09/01 11:24:59;;;;;;;5.60;1.20;;;;;;;;;;10413969;28;20396;-46
2023/09/01 11:30:03;;;;;;;1.90;1.20;;;;;;;;;;10413607;28;20025;-46
2023/09/01 11:35:05;;;;;;;2.20;1.30;;;;;;;;;;10410548;28;20380;-50
2023/09/01 11:40:09;;;;;;;1.52;1.13;;;;;;;;;;10397781;28;20099;-51
2023/09/01 11:45:11;;;;;;;1.60;1.35;;;;;;;;;;10383008;28;20374;-46
2023/09/01 11:50:13;;;;;;;2.70;1.23;;;;;;;;;;10408663;28;20163;-49
2023/09/01 11:55:35;;;;;;;2.03;1.30;;;;;;;;;;10391791;28;20046;-48
2023/09/01 12:00:38;;;;;;;2.33;1.40;;;;;;;;;;10397634;28;20041;-48
2023/09/01 12:05:40;;;;;;;2.55;1.20;;;;;;;;;;10410576;28;20048;-46
2023/09/01 12:10:41;;;;;;;1.45;1.00;;;;;;;;;;10392475;28;20030;-47
2023/09/01 12:15:58;;;;;;;1.60;1.35;;;;;;;;;;10397527;28;20026;-46
2023/09/01 12:21:01;;;;;;;1.27;1.05;;;;;;;;;;10397407;28;20122;-46
2023/09/01 12:26:02;;;;;;;3.53;1.20;;;;;;;;;;10394858;28;20034;-46
2023/09/01 12:31:05;;;;;;;2.47;1.23;;;;;;;;;;10399358;28;20017;-46
2023/09/01 12:36:06;;;;;;;1.30;1.20;;;;;;;;;;10397125;28;20397;-46
2023/09/01 12:41:06;;;;;;;2.55;1.48;;;;;;;;;;10396975;28;20033;-48
2023/09/01 12:46:07;;;;;;;3.15;1.50;;;;;;;;;;10393909;28;20160;-47
2023/09/01 12:51:08;;;;;;;3.35;1.13;;;;;;;;;;10394421;28;20267;-47
2023/09/01 12:56:10;;;;;;;2.42;1.63;;;;;;;;;;10420523;28;20036;-46
2023/09/01 13:01:11;;;;;;;4.18;1.50;;;;;;;;;;10399708;28;20033;-46
2023/09/01 13:06:12;;;;;;;1.92;1.50;;;;;;;;;;10392897;28;20480;-47
2023/09/01 13:11:14;;;;;;;1.40;1.25;;;;;;;;;;10399570;28;20397;-48
2023/09/01 13:16:14;;;;;;;3.30;1.73;;;;;;;;;;10409557;28;20037;-48
2023/09/01 13:21:15;;;;;;;6.78;1.60;;;;;;;;;;10408375;28;20033;-46
2023/09/01 13:26:16;;;;;;;6.85;1.60;;;;;;;;;;10408920;28;20049;-46
2023/09/01 13:31:17;;;;;;;3.25;1.60;;;;;;;;;;10408808;28;20029;-46
2023/09/01 13:36:17;;;;;;;2.63;1.58;;;;;;;;;;10408479;28;20026;-46
2023/09/01 13:41:19;;;;;;;3.55;1.80;;;;;;;;;;10408708;28;20025;-46
2023/09/01 13:46:25;;;;;;;3.00;1.65;;;;;;;;;;10408434;28;20060;-46
2023/09/01 13:51:28;;;;;;;3.00;1.77;;;;;;;;;;10408987;28;20051;-50
2023/09/01 13:56:30;;;;;;;2.63;1.60;;;;;;;;;;10408322;28;20550;-48
2023/09/01 14:01:30;;;;;;;5.10;1.67;;;;;;;;;;10408122;28;20022;-46
2023/09/01 14:06:31;;;;;;;2.13;1.77;;;;;;;;;;10408048;28;20037;-47
2023/09/01 14:11:32;;;;;;;4.57;1.60;;;;;;;;;;10408031;28;20032;-46
2023/09/01 14:16:32;;;;;;;5.03;1.67;;;;;;;;;;10408113;28;20036;-46
2023/09/01 14:21:33;;;;;;;4.20;2.20;;;;;;;;;;10407990;28;20215;-46
2023/09/01 14:26:33;;;;;;;2.47;1.70;;;;;;;;;;10408280;28;20038;-46
2023/09/01 14:31:34;;;;;;;2.53;1.60;;;;;;;;;;10407885;28;20033;-46
2023/09/01 14:36:35;;;;;;;2.22;1.70;;;;;;;;;;10407616;28;20026;-46
2023/09/01 14:41:35;;;;;;;5.32;1.60;;;;;;;;;;10407680;28;20091;-46
2023/09/01 14:46:36;;;;;;;4.03;1.75;;;;;;;;;;10408814;28;20045;-46
2023/09/01 14:51:36;;;;;;;2.58;1.40;;;;;;;;;;10415134;28;20057;-46
2023/09/01 14:56:37;;;;;;;3.67;1.50;;;;;;;;;;10414912;28;20014;-46
2023/09/01 15:01:39;;;;;;;5.63;1.88;;;;;;;;;;10414440;28;20032;-46
2023/09/01 15:06:40;;;;;;;3.03;1.75;;;;;;;;;;10414480;28;20041;-46
2023/09/01 15:11:40;;;;;;;2.13;1.58;;;;;;;;;;10412538;28;20618;-54
2023/09/01 15:16:42;;;;;;;2.58;1.40;;;;;;;;;;10413336;28;20394;-54
2023/09/01 15:21:42;;;;;;;2.38;1.70;;;;;;;;;;10413287;28;20040;-56
2023/09/01 15:26:43;;;;;;;2.22;1.63;;;;;;;;;;10413519;28;20539;-56
2023/09/01 15:31:43;;;;;;;1.95;1.70;;;;;;;;;;10413608;28;20036;-56
2023/09/01 15:36:44;;;;;;;3.67;1.83;;;;;;;;;;10413149;28;20025;-54
2023/09/01 15:41:44;;;;;;;12.68;1.88;;;;;;;;;;10413019;28;20099;-54
2023/09/01 15:46:45;;;;;;;7.25;1.90;;;;;;;;;;10412712;28;20053;-53
2023/09/01 15:51:46;;;;;;;4.10;1.80;;;;;;;;;;10412167;28;20042;-54
2023/09/01 15:56:46;;;;;;;4.22;2.10;;;;;;;;;;10412238;28;20022;-47
2023/09/01 16:01:47;;;;;;;9.52;2.55;;;;;;;;;;10411239;28;20021;-47
2023/09/01 16:06:47;;;;;;;8.95;2.13;;;;;;;;;;10412356;28;20030;-53
2023/09/01 16:11:48;;;;;;;6.25;2.30;;;;;;;;;;10412048;28;20024;-55
2023/09/01 16:16:53;;;;;;;3.95;2.13;;;;;;;;;;10412479;28;20033;-51
2023/09/01 16:21:57;;;;;;;7.00;2.25;;;;;;;;;;10411236;28;20057;-52
2023/09/01 16:26:57;;;;;;;7.10;2.10;;;;;;;;;;10411255;28;20037;-52
2023/09/01 16:31:58;;;;;;;5.60;2.20;;;;;;;;;;10411295;28;20029;-54
2023/09/01 16:36:59;;;;;;;13.32;2.35;;;;;;;;;;10410750;28;20029;-55
2023/09/01 16:41:59;;;;;;;6.32;2.75;;;;;;;;;;10410604;28;20385;-50
2023/09/01 16:47:01;;;;;;;17.15;2.10;;;;;;;;;;10410688;28;20029;-52
2023/09/01 16:52:02;;;;;;;4.47;2.30;;;;;;;;;;10410209;28;20112;-53
2023/09/01 16:57:03;;;;;;;10.30;2.35;;;;;;;;;;10395431;28;20099;-50
2023/09/01 17:02:04;;;;;;;5.63;2.35;;;;;;;;;;10406039;28;20362;-54
2023/09/01 17:07:05;;;;;;;3.45;2.08;;;;;;;;;;10388420;28;20029;-52
2023/09/01 17:12:06;;;;;;;5.63;2.15;;;;;;;;;;10408042;28;20487;-53
2023/09/01 17:17:06;;;;;;;14.27;2.42;;;;;;;;;;10409497;28;20071;-54
2023/09/01 17:22:07;;;;;;;3.45;2.05;;;;;;;;;;10409621;28;20086;-52
2023/09/01 17:27:07;;;;;;;3.03;1.88;;;;;;;;;;10409664;28;20037;-50
2023/09/01 17:32:08;;;;;;;10.23;2.33;;;;;;;;;;10409262;28;20036;-55
2023/09/01 17:37:08;;;;;;;7.05;2.30;;;;;;;;;;10410042;28;20021;-55
2023/09/01 17:42:09;;;;;;;3.20;1.80;;;;;;;;;;10408663;28;20033;-54
2023/09/01 17:47:09;;;;;;;5.05;2.28;;;;;;;;;;10408634;28;20037;-56
2023/09/01 17:52:11;;;;;;;5.53;2.00;;;;;;;;;;10408834;28;20025;-51
2023/09/01 17:57:12;;;;;;;5.55;2.15;;;;;;;;;;10408890;28;20045;-52
2023/09/01 18:02:14;;;;;;;5.32;1.98;;;;;;;;;;10408496;28;20029;-51
2023/09/01 18:07:18;;;;;;;8.13;1.92;;;;;;;;;;10408330;28;20057;-53
2023/09/01 18:12:19;;;;;;;4.95;2.00;;;;;;;;;;10408791;28;20072;-52
2023/09/01 18:17:21;;;;;;;4.78;2.03;;;;;;;;;;10407722;28;20111;-55
2023/09/01 18:22:22;;;;;;;2.65;2.05;;;;;;;;;;10410876;28;20343;-55
2023/09/01 18:27:29;;;;;;;5.50;2.30;;;;;;;;;;10415436;28;20029;-54
2023/09/01 18:32:31;;;;;;;2.67;1.90;;;;;;;;;;10412958;28;20064;-54
2023/09/01 18:37:38;;;;;;;5.80;2.10;;;;;;;;;;10411545;28;20505;-50
2023/09/01 18:42:38;;;;;;;5.55;2.17;;;;;;;;;;10415314;28;20354;-54
2023/09/01 18:47:39;;;;;;;7.72;1.90;;;;;;;;;;10415907;28;20034;-56
2023/09/01 18:52:40;;;;;;;5.00;1.90;;;;;;;;;;10415337;28;20022;-53
2023/09/01 18:57:40;;;;;;;5.82;2.10;;;;;;;;;;10415278;28;20029;-53
2023/09/01 19:02:44;;;;;;;4.63;2.42;;;;;;;;;;10414738;28;20041;-56
2023/09/01 19:07:45;;;;;;;3.97;2.15;;;;;;;;;;10414470;28;20029;-55
2023/09/01 19:12:49;;;;;;;4.45;2.15;;;;;;;;;;10414757;28;20469;-55
2023/09/01 19:17:49;;;;;;;3.72;1.95;;;;;;;;;;10414112;28;20028;-55
2023/09/01 19:22:53;;;;;;;4.70;2.10;;;;;;;;;;10413861;28;20488;-56
2023/09/01 19:27:54;;;;;;;6.85;2.40;;;;;;;;;;10414065;28;20029;-52
2023/09/01 19:32:54;;;;;;;8.45;2.47;;;;;;;;;;10412175;28;20021;-56
2023/09/01 19:37:55;;;;;;;5.18;2.20;;;;;;;;;;10413234;28;20385;-54
2023/09/01 19:43:06;;;;;;;5.93;2.10;;;;;;;;;;10412882;28;20045;-55
2023/09/01 19:48:07;;;;;;;2.50;1.80;;;;;;;;;;10411449;28;20041;-56
2023/09/01 19:53:28;;;;;;;4.10;1.92;;;;;;;;;;10411714;28;20100;-53
2023/09/01 19:58:31;;;;;;;6.90;2.05;;;;;;;;;;10412592;28;20491;-52
2023/09/01 20:03:31;;;;;;;4.60;1.85;;;;;;;;;;10412590;28;20385;-51
2023/09/01 20:08:32;;;;;;;3.88;2.03;;;;;;;;;;10412760;28;20056;-52
2023/09/01 20:13:36;;;;;;;3.63;2.00;;;;;;;;;;10412095;28;20564;-52
2023/09/01 20:18:37;;;;;;;5.03;2.13;;;;;;;;;;10411895;28;20038;-57
2023/09/01 20:23:39;;;;;;;6.50;2.40;;;;;;;;;;10411457;28;20029;-52
2023/09/01 20:28:40;;;;;;;5.05;2.00;;;;;;;;;;10411299;28;20037;-55
2023/09/01 20:33:41;;;;;;;4.00;2.40;;;;;;;;;;10411034;28;20041;-53
2023/09/01 20:38:42;;;;;;;3.80;1.88;;;;;;;;;;10410874;28;20021;-53
2023/09/01 20:43:43;;;;;;;6.35;2.60;;;;;;;;;;10409865;28;20052;-56
2023/09/01 20:48:43;;;;;;;3.67;2.17;;;;;;;;;;10410936;28;20030;-56
2023/09/01 20:53:44;;;;;;;4.03;2.35;;;;;;;;;;10409396;28;20374;-54
2023/09/01 20:58:45;;;;;;;3.75;2.30;;;;;;;;;;10410273;28;20431;-53
2023/09/01 21:03:45;;;;;;;4.32;1.95;;;;;;;;;;10409882;28;20377;-55
2023/09/01 21:08:46;;;;;;;3.38;2.60;;;;;;;;;;10410312;28;20028;-55
2023/09/01 21:13:46;;;;;;;3.25;2.33;;;;;;;;;;10410321;28;20033;-56
2023/09/01 21:18:49;;;;;;;3.10;2.03;;;;;;;;;;10409617;28;20552;-56
2023/09/01 21:23:49;;;;;;;6.22;2.25;;;;;;;;;;10409188;28;20025;-56
2023/09/01 21:28:50;;;;;;;4.03;2.13;;;;;;;;;;10409506;28;20021;-55
2023/09/01 21:33:50;;;;;;;4.30;2.42;;;;;;;;;;10409005;28;20025;-54
2023/09/01 21:38:51;;;;;;;5.05;2.40;;;;;;;;;;10408663;28;20088;-56
2023/09/01 21:43:52;;;;;;;4.53;2.35;;;;;;;;;;10408493;28;20041;-56
2023/09/01 21:48:52;;;;;;;3.20;2.10;;;;;;;;;;10408564;28;20028;-56
2023/09/01 21:53:53;;;;;;;6.32;2.58;;;;;;;;;;10403111;28;20029;-56
2023/09/01 21:58:53;;;;;;;3.15;2.40;;;;;;;;;;10407697;28;20475;-56
2023/09/01 22:03:54;;;;;;;4.43;2.33;;;;;;;;;;10407194;28;20034;-55
2023/09/01 22:08:55;;;;;;;5.07;2.67;;;;;;;;;;10408232;28;20029;-56
2023/09/01 22:13:55;;;;;;;7.32;2.78;;;;;;;;;;10399064;28;20037;-54
2023/09/01 22:18:56;;;;;;;4.90;2.55;;;;;;;;;;10407794;28;20021;-52
2023/09/01 22:23:57;;;;;;;5.82;2.55;;;;;;;;;;10397970;28;20037;-54
2023/09/01 22:28:57;;;;;;;6.78;2.30;;;;;;;;;;10405979;28;20030;-54
2023/09/01 22:33:58;;;;;;;5.30;2.70;;;;;;;;;;10408230;28;20030;-52
2023/09/01 22:38:59;;;;;;;4.57;2.70;;;;;;;;;;10408106;28;20101;-54
2023/09/01 22:43:59;;;;;;;5.93;2.42;;;;;;;;;;10407458;28;20076;-53
2023/09/01 22:49:00;;;;;;;3.20;2.17;;;;;;;;;;10407892;28;20111;-54
2023/09/01 22:54:02;;;;;;;4.53;2.30;;;;;;;;;;10407428;28;20026;-55
2023/09/01 22:59:03;;;;;;;4.53;2.33;;;;;;;;;;10407613;28;20287;-53
2023/09/01 23:04:06;;;;;;;4.47;2.53;;;;;;;;;;10407387;28;20283;-53
2023/09/01 23:09:07;;;;;;;4.70;2.08;;;;;;;;;;10410397;28;20044;-55
2023/09/01 23:14:07;;;;;;;3.80;2.38;;;;;;;;;;10414112;28;20126;-51
2023/09/01 23:19:08;;;;;;;2.67;2.10;;;;;;;;;;10412580;28;20025;-54
2023/09/01 23:24:09;;;;;;;3.83;2.10;;;;;;;;;;10409927;28;20022;-56
2023/09/01 23:29:11;;;;;;;4.45;2.40;;;;;;;;;;10408468;28;20183;-53
2023/09/01 23:34:11;;;;;;;2.75;2.10;;;;;;;;;;10411934;28;20025;-54
2023/09/01 23:39:12;;;;;;;5.00;2.53;;;;;;;;;;10393985;28;20487;-55
2023/09/01 23:44:12;;;;;;;3.00;2.28;;;;;;;;;;10408586;28;20042;-55
2023/09/01 23:49:13;;;;;;;4.53;2.10;;;;;;;;;;10413084;28;20515;-56
2023/09/01 23:54:13;;;;;;;4.03;2.45;;;;;;;;;;10418745;28;20491;-56
2023/09/01 23:59:14;;;;;;;4.50;2.10;;;;;;;;;;10419768;28;20602;-55
